createdAt,value
2022-12-09T00:01:16.784Z,67.00
2022-12-09T00:03:44.859Z,66.90
2022-12-09T00:06:13.974Z,66.80
2022-12-09T00:08:42.187Z,66.80
2022-12-09T00:11:10.204Z,66.80
2022-12-09T00:13:38.452Z,66.70
2022-12-09T00:16:08.728Z,66.70
2022-12-09T00:18:37.055Z,66.70
2022-12-09T00:21:15.224Z,66.60
2022-12-09T00:23:43.579Z,66.50
2022-12-09T00:26:11.629Z,66.50
2022-12-09T00:28:39.548Z,66.40
2022-12-09T00:31:09.278Z,66.30
2022-12-09T00:33:37.422Z,66.20
2022-12-09T00:36:06.790Z,66.20
2022-12-09T00:38:34.755Z,66.20
2022-12-09T00:41:02.924Z,66.10
2022-12-09T00:43:31.119Z,66.00
2022-12-09T00:45:59.066Z,66.00
2022-12-09T00:48:28.435Z,66.00
2022-12-09T00:50:56.501Z,65.90
2022-12-09T00:53:24.715Z,65.90
2022-12-09T00:55:52.777Z,65.90
2022-12-09T00:58:20.921Z,65.80
2022-12-09T01:00:49.113Z,65.80
2022-12-09T01:03:17.757Z,65.70
2022-12-09T01:05:47.492Z,65.70
2022-12-09T01:08:15.713Z,65.80
2022-12-09T01:10:44.257Z,65.70
2022-12-09T01:13:13.049Z,65.50
2022-12-09T01:15:41.270Z,66.50
2022-12-09T01:18:09.597Z,65.50
2022-12-09T01:20:37.512Z,65.50
2022-12-09T01:23:07.083Z,65.50
2022-12-09T01:25:35.344Z,65.50
2022-12-09T01:28:03.383Z,65.50
2022-12-09T01:30:31.452Z,65.40
2022-12-09T01:32:59.594Z,65.50
2022-12-09T01:35:27.548Z,65.40
2022-12-09T01:37:55.853Z,65.60
2022-12-09T01:40:25.142Z,65.50
2022-12-09T01:42:53.156Z,65.40
2022-12-09T01:45:45.294Z,65.50
2022-12-09T01:48:14.698Z,65.40
2022-12-09T01:50:48.439Z,65.30
2022-12-09T01:53:16.741Z,65.20
2022-12-09T01:55:46.416Z,65.20
2022-12-09T01:58:15.090Z,65.20
2022-12-09T02:00:43.348Z,65.20
2022-12-09T02:03:11.908Z,65.00
2022-12-09T02:05:40.139Z,65.00
2022-12-09T02:08:11.187Z,65.00
2022-12-09T02:10:40.268Z,65.00
2022-12-09T02:13:15.565Z,65.90
2022-12-09T02:15:44.918Z,64.90
2022-12-09T02:18:16.960Z,64.80
2022-12-09T02:20:47.752Z,64.80
2022-12-09T02:23:19.987Z,64.80
2022-12-09T02:25:48.795Z,64.70
2022-12-09T02:28:31.792Z,65.60
2022-12-09T02:31:02.778Z,64.70
2022-12-09T02:33:39.826Z,64.60
2022-12-09T02:36:12.907Z,64.50
2022-12-09T02:38:41.995Z,64.60
2022-12-09T02:41:13.294Z,64.50
2022-12-09T02:43:50.050Z,64.50
2022-12-09T02:46:22.689Z,64.50
2022-12-09T02:48:53.552Z,64.50
2022-12-09T02:51:23.479Z,64.50
2022-12-09T02:53:54.133Z,64.50
2022-12-09T02:56:22.387Z,64.40
2022-12-09T02:58:51.045Z,65.50
2022-12-09T03:01:25.221Z,64.30
2022-12-09T03:03:53.435Z,64.30
2022-12-09T03:06:23.057Z,64.20
2022-12-09T03:08:53.236Z,64.20
2022-12-09T03:11:21.960Z,64.10
2022-12-09T03:13:53.416Z,64.20
2022-12-09T03:16:23.509Z,64.10
2022-12-09T03:18:55.489Z,64.00
2022-12-09T03:21:25.457Z,64.00
2022-12-09T03:23:54.363Z,64.00
2022-12-09T03:26:22.243Z,64.00
2022-12-09T03:28:51.388Z,63.90
2022-12-09T03:31:20.104Z,63.90
2022-12-09T03:33:48.970Z,63.90
2022-12-09T03:36:17.018Z,63.80
2022-12-09T03:38:46.747Z,63.60
2022-12-09T03:41:17.848Z,63.70
2022-12-09T03:43:48.781Z,63.60
2022-12-09T03:46:17.002Z,63.50
2022-12-09T03:48:44.888Z,63.40
2022-12-09T03:51:15.263Z,63.30
2022-12-09T03:53:48.039Z,63.60
2022-12-09T03:56:19.066Z,63.70
2022-12-09T03:58:47.410Z,63.80
2022-12-09T04:01:16.403Z,63.90
2022-12-09T04:03:45.898Z,64.00
2022-12-09T04:06:14.186Z,64.10
2022-12-09T04:08:42.572Z,64.20
2022-12-09T04:11:13.673Z,64.30
2022-12-09T04:13:41.883Z,64.30
2022-12-09T04:16:10.342Z,64.40
2022-12-09T04:18:38.446Z,64.30
2022-12-09T04:21:07.941Z,64.20
2022-12-09T04:23:41.003Z,64.40
2022-12-09T04:26:15.508Z,64.40
2022-12-09T04:28:43.531Z,64.30
2022-12-09T04:31:12.040Z,64.10
2022-12-09T04:33:40.384Z,63.80
2022-12-09T04:36:09.656Z,63.80
2022-12-09T04:38:37.949Z,63.60
2022-12-09T04:41:05.874Z,64.50
2022-12-09T04:43:35.239Z,63.40
2022-12-09T04:46:03.946Z,63.30
2022-12-09T04:48:32.268Z,63.60
2022-12-09T04:51:00.699Z,63.20
2022-12-09T04:53:29.221Z,63.10
2022-12-09T04:56:01.246Z,63.00
2022-12-09T04:58:29.231Z,63.10
2022-12-09T05:00:58.985Z,62.90
2022-12-09T05:03:27.014Z,63.10
2022-12-09T05:05:55.397Z,62.90
2022-12-09T05:08:29.817Z,62.80
2022-12-09T05:10:59.443Z,62.80
2022-12-09T05:13:28.066Z,63.00
2022-12-09T05:15:59.827Z,63.00
2022-12-09T05:18:29.425Z,62.90
2022-12-09T05:20:57.904Z,62.90
2022-12-09T05:23:26.052Z,62.90
2022-12-09T05:25:56.001Z,62.70
2022-12-09T05:28:24.240Z,62.90
2022-12-09T05:30:52.583Z,62.80
2022-12-09T05:33:21.006Z,62.80
2022-12-09T05:35:52.990Z,62.70
2022-12-09T05:38:22.500Z,62.70
2022-12-09T05:40:50.807Z,62.70
2022-12-09T05:43:18.897Z,62.70
2022-12-09T05:45:47.252Z,62.60
2022-12-09T05:48:15.685Z,62.60
2022-12-09T05:50:43.953Z,62.70
2022-12-09T05:53:13.450Z,62.60
2022-12-09T05:55:42.032Z,62.50
2022-12-09T05:58:10.391Z,62.50
2022-12-09T06:00:38.709Z,62.50
2022-12-09T06:03:06.998Z,62.60
2022-12-09T06:05:35.401Z,62.50
2022-12-09T06:08:06.884Z,62.60
2022-12-09T06:10:39.568Z,62.50
2022-12-09T06:13:07.984Z,62.50
2022-12-09T06:15:36.842Z,63.00
2022-12-09T06:18:05.037Z,63.10
2022-12-09T06:20:33.684Z,62.80
2022-12-09T06:23:01.930Z,63.00
2022-12-09T06:25:30.313Z,63.10
2022-12-09T06:27:59.683Z,63.50
2022-12-09T06:30:27.963Z,63.50
2022-12-09T06:32:56.295Z,63.00
2022-12-09T06:35:24.363Z,62.60
2022-12-09T06:37:53.513Z,62.30
2022-12-09T06:40:22.841Z,62.90
2022-12-09T06:42:51.279Z,63.30
2022-12-09T06:45:21.141Z,63.40
2022-12-09T06:47:49.327Z,63.70
2022-12-09T06:50:17.680Z,64.20
2022-12-09T06:52:46.064Z,64.50
2022-12-09T06:55:14.437Z,64.40
2022-12-09T06:57:42.637Z,64.20
2022-12-09T07:00:11.474Z,64.40
2022-12-09T07:02:40.925Z,64.50
2022-12-09T07:05:10.121Z,64.40
2022-12-09T07:07:39.702Z,64.40
2022-12-09T07:10:09.619Z,64.40
2022-12-09T07:12:37.785Z,64.60
2022-12-09T07:15:07.311Z,64.70
2022-12-09T07:17:35.565Z,64.60
2022-12-09T07:20:07.583Z,64.50
2022-12-09T07:22:36.401Z,64.30
2022-12-09T07:25:04.645Z,64.20
2022-12-09T07:27:33.857Z,64.20
2022-12-09T07:30:02.146Z,64.10
2022-12-09T07:32:30.651Z,64.00
2022-12-09T07:34:58.784Z,64.00
2022-12-09T07:37:28.368Z,63.90
2022-12-09T07:39:56.499Z,63.90
2022-12-09T07:42:24.616Z,63.90
2022-12-09T07:44:55.317Z,63.70
2022-12-09T07:47:23.302Z,63.70
2022-12-09T07:49:52.154Z,63.60
2022-12-09T07:52:20.442Z,63.50
2022-12-09T07:54:49.870Z,63.50
2022-12-09T07:57:17.817Z,63.40
2022-12-09T07:59:45.785Z,63.40
2022-12-09T08:02:14.170Z,63.30
2022-12-09T08:04:42.341Z,64.40
2022-12-09T08:07:12.910Z,63.30
2022-12-09T08:09:41.934Z,63.20
2022-12-09T08:12:12.623Z,63.20
2022-12-09T08:14:40.957Z,63.10
2022-12-09T08:17:09.061Z,63.00
2022-12-09T08:19:37.926Z,63.90
2022-12-09T08:22:06.236Z,62.90
2022-12-09T08:24:34.255Z,62.80
2022-12-09T08:27:02.661Z,62.70
2022-12-09T08:29:32.086Z,62.80
2022-12-09T08:32:00.700Z,63.20
2022-12-09T08:34:29.272Z,63.70
2022-12-09T08:37:01.815Z,64.20
2022-12-09T08:39:30.374Z,64.50
2022-12-09T08:41:58.842Z,64.70
2022-12-09T08:44:27.241Z,64.80
2022-12-09T08:46:56.937Z,64.80
2022-12-09T08:49:25.127Z,64.90
2022-12-09T08:51:53.966Z,64.80
2022-12-09T08:54:22.578Z,64.80
2022-12-09T08:56:51.623Z,64.70
2022-12-09T08:59:19.737Z,64.80
2022-12-09T09:01:48.478Z,65.00
2022-12-09T09:04:19.832Z,65.00
2022-12-09T09:06:50.188Z,65.10
2022-12-09T09:09:18.512Z,64.80
2022-12-09T09:11:46.722Z,64.80
2022-12-09T09:14:14.993Z,64.70
2022-12-09T09:16:44.262Z,64.80
2022-12-09T09:19:15.800Z,64.80
2022-12-09T09:21:45.249Z,64.70
2022-12-09T09:24:15.620Z,64.80
2022-12-09T09:26:44.229Z,64.70
2022-12-09T09:29:12.649Z,65.70
2022-12-09T09:31:40.989Z,64.60
2022-12-09T09:34:09.447Z,64.60
2022-12-09T09:36:38.397Z,64.50
2022-12-09T09:39:07.840Z,64.50
2022-12-09T09:41:43.608Z,64.50
2022-12-09T09:44:16.702Z,64.40
2022-12-09T09:46:46.358Z,64.40
2022-12-09T09:49:17.560Z,64.30
2022-12-09T09:51:46.124Z,64.30
2022-12-09T09:54:15.454Z,64.30
2022-12-09T09:56:47.155Z,64.20
2022-12-09T09:59:21.208Z,64.20
2022-12-09T10:01:54.493Z,64.20
2022-12-09T10:04:26.539Z,64.20
2022-12-09T10:07:04.087Z,64.20
2022-12-09T10:09:39.438Z,64.20
2022-12-09T10:12:23.608Z,64.10
2022-12-09T10:14:55.256Z,64.10
2022-12-09T10:17:27.395Z,64.10
2022-12-09T10:19:58.403Z,64.00
2022-12-09T10:22:30.547Z,63.90
2022-12-09T10:25:01.070Z,63.90
2022-12-09T10:27:31.500Z,63.90
2022-12-09T10:30:00.907Z,64.90
2022-12-09T10:32:30.558Z,63.90
2022-12-09T10:34:59.252Z,63.90
2022-12-09T10:37:29.910Z,63.80
2022-12-09T10:40:16.522Z,63.70
2022-12-09T10:43:02.963Z,63.70
2022-12-09T10:45:52.698Z,63.60
2022-12-09T10:48:25.607Z,63.50
2022-12-09T10:50:58.495Z,63.50
2022-12-09T10:53:26.559Z,63.40
2022-12-09T10:55:56.818Z,63.20
2022-12-09T10:58:26.929Z,63.20
2022-12-09T11:01:07.005Z,63.20
2022-12-09T11:03:36.394Z,63.10
2022-12-09T11:06:12.533Z,63.00
2022-12-09T11:08:41.751Z,63.00
2022-12-09T11:11:11.234Z,63.10
2022-12-09T11:13:44.191Z,63.00
2022-12-09T11:16:12.581Z,63.00
2022-12-09T11:18:45.649Z,62.80
2022-12-09T11:21:30.782Z,62.80
2022-12-09T11:24:03.203Z,62.70
2022-12-09T11:26:39.199Z,62.40
2022-12-09T11:29:14.936Z,62.20
2022-12-09T11:31:43.560Z,62.10
2022-12-09T11:34:19.870Z,61.80
2022-12-09T11:36:49.722Z,61.50
2022-12-09T11:39:26.469Z,61.50
2022-12-09T11:42:17.914Z,61.70
2022-12-09T11:44:52.853Z,61.70
2022-12-09T11:47:29.052Z,61.70
2022-12-09T11:49:58.303Z,61.80
2022-12-09T11:52:29.179Z,61.80
2022-12-09T11:55:10.537Z,61.90
2022-12-09T11:57:46.089Z,61.90
2022-12-09T12:00:22.427Z,61.90
2022-12-09T12:02:55.860Z,62.00
2022-12-09T12:05:24.949Z,62.00
2022-12-09T12:08:02.919Z,61.90
2022-12-09T12:10:32.326Z,62.00
2022-12-09T12:13:05.187Z,61.90
2022-12-09T12:15:38.052Z,61.90
2022-12-09T12:18:06.604Z,61.80
2022-12-09T12:20:50.093Z,61.70
2022-12-09T12:23:28.707Z,61.70
2022-12-09T12:26:00.156Z,61.60
2022-12-09T12:28:37.483Z,61.60
2022-12-09T12:31:11.417Z,61.60
2022-12-09T12:34:16.160Z,61.70
2022-12-09T12:36:42.936Z,61.60
2022-12-09T12:39:14.948Z,61.60
2022-12-09T12:41:47.516Z,61.60
2022-12-09T12:44:44.251Z,61.60
2022-12-09T12:47:16.424Z,61.60
2022-12-09T12:49:52.623Z,61.60
2022-12-09T12:52:54.315Z,62.50
2022-12-09T12:55:21.427Z,61.60
2022-12-09T12:57:55.150Z,61.60
2022-12-09T13:00:25.566Z,61.50
2022-12-09T13:03:01.912Z,61.50
2022-12-09T13:05:34.863Z,61.50
2022-12-09T13:08:05.993Z,61.50
2022-12-09T13:10:35.388Z,61.50
2022-12-09T13:13:04.463Z,61.50
2022-12-09T13:15:34.913Z,61.40
2022-12-09T13:18:07.227Z,61.30
2022-12-09T13:20:42.056Z,61.30
2022-12-09T13:23:15.332Z,61.20
2022-12-09T13:25:46.590Z,61.00
2022-12-09T13:28:17.349Z,60.90
2022-12-09T13:30:54.008Z,60.90
2022-12-09T13:33:39.997Z,60.70
2022-12-09T13:36:09.775Z,60.70
2022-12-09T13:38:39.816Z,60.70
2022-12-09T13:42:10.991Z,60.60
2022-12-09T13:44:39.328Z,60.60
2022-12-09T13:47:36.045Z,60.50
2022-12-09T13:50:04.776Z,60.50
2022-12-09T13:52:54.033Z,60.40
2022-12-09T13:55:40.758Z,61.30
2022-12-09T13:58:31.365Z,60.30
2022-12-09T14:01:04.696Z,60.40
2022-12-09T14:03:35.029Z,60.40
2022-12-09T14:06:04.965Z,60.40
2022-12-09T14:08:35.206Z,60.30
2022-12-09T14:11:24.817Z,60.20
2022-12-09T14:13:52.662Z,60.30
2022-12-09T14:16:34.810Z,60.30
2022-12-09T14:19:36.076Z,60.20
2022-12-09T14:22:37.339Z,60.30
2022-12-09T14:25:46.770Z,60.10
2022-12-09T14:28:42.230Z,60.30
2022-12-09T14:31:10.210Z,60.50
2022-12-09T14:33:38.902Z,60.30
2022-12-09T14:36:08.489Z,60.30
2022-12-09T14:39:07.826Z,60.20
2022-12-09T14:41:32.370Z,60.20
2022-12-09T14:44:04.536Z,60.20
2022-12-09T14:46:34.250Z,60.20
2022-12-09T14:49:04.049Z,60.20
2022-12-09T14:51:35.636Z,60.20
2022-12-09T14:54:07.257Z,60.20
2022-12-09T14:56:35.160Z,60.10
2022-12-09T14:59:05.811Z,60.10
2022-12-09T15:01:55.847Z,60.20
2022-12-09T15:04:26.019Z,60.20
2022-12-09T15:07:10.646Z,60.20
2022-12-09T15:09:53.090Z,60.20
2022-12-09T15:12:22.321Z,60.10
2022-12-09T15:14:51.930Z,60.10
2022-12-09T15:17:28.459Z,60.10
2022-12-09T15:20:00.759Z,60.10
2022-12-09T15:22:30.771Z,60.00
2022-12-09T15:25:02.233Z,60.00
2022-12-09T15:27:30.421Z,60.10
2022-12-09T15:29:58.377Z,60.20
2022-12-09T15:32:27.245Z,60.20
2022-12-09T15:34:55.344Z,60.10
2022-12-09T15:37:25.602Z,60.10
2022-12-09T15:39:56.309Z,60.00
2022-12-09T15:42:27.314Z,59.90
2022-12-09T15:44:59.064Z,59.80
2022-12-09T15:47:29.322Z,59.80
2022-12-09T15:50:00.790Z,59.80
2022-12-09T15:52:30.381Z,59.80
2022-12-09T15:54:58.337Z,60.00
2022-12-09T15:57:27.859Z,59.80
2022-12-09T15:59:57.861Z,59.90
2022-12-09T16:02:27.807Z,59.80
2022-12-09T16:04:56.442Z,59.80
2022-12-09T16:07:25.183Z,59.80
2022-12-09T16:10:12.657Z,59.80
2022-12-09T16:12:42.519Z,59.80
2022-12-09T16:15:12.149Z,60.00
2022-12-09T16:17:54.226Z,59.80
2022-12-09T16:20:24.451Z,59.70
2022-12-09T16:22:53.313Z,60.70
2022-12-09T16:25:22.416Z,59.70
2022-12-09T16:27:58.431Z,59.70
2022-12-09T16:30:27.460Z,59.70
2022-12-09T16:32:55.848Z,59.60
2022-12-09T16:35:25.540Z,59.70
2022-12-09T16:38:16.162Z,59.70
2022-12-09T16:41:17.371Z,59.70
2022-12-09T16:43:57.410Z,59.60
2022-12-09T16:46:37.662Z,59.60
2022-12-09T16:49:05.709Z,59.70
2022-12-09T16:51:33.581Z,59.60
2022-12-09T16:54:01.478Z,59.50
2022-12-09T16:56:30.222Z,59.60
2022-12-09T16:58:59.920Z,59.50
2022-12-09T17:01:29.117Z,59.60
2022-12-09T17:03:58.622Z,59.60
2022-12-09T17:06:26.512Z,59.80
2022-12-09T17:08:54.395Z,60.40
2022-12-09T17:11:22.369Z,60.60
2022-12-09T17:13:50.305Z,60.70
2022-12-09T17:16:21.939Z,60.80
2022-12-09T17:18:50.333Z,60.90
2022-12-09T17:21:18.486Z,60.90
2022-12-09T17:23:46.475Z,60.90
2022-12-09T17:26:16.781Z,61.00
2022-12-09T17:28:45.122Z,61.00
2022-12-09T17:31:14.385Z,61.00
2022-12-09T17:33:44.586Z,61.00
2022-12-09T17:36:12.804Z,61.00
2022-12-09T17:38:40.696Z,61.10
2022-12-09T17:41:09.260Z,61.20
2022-12-09T17:43:37.294Z,61.30
2022-12-09T17:46:06.028Z,61.30
2022-12-09T17:48:34.647Z,61.20
2022-12-09T17:51:07.748Z,61.30
2022-12-09T17:53:36.913Z,62.40
2022-12-09T17:56:09.009Z,61.50
2022-12-09T17:58:36.901Z,61.40
2022-12-09T18:01:04.910Z,61.40
2022-12-09T18:03:54.902Z,61.30
2022-12-09T18:06:22.101Z,61.40
2022-12-09T18:08:50.057Z,61.50
2022-12-09T18:11:17.922Z,61.70
2022-12-09T18:13:46.688Z,61.80
2022-12-09T18:16:15.127Z,61.70
2022-12-09T18:18:43.250Z,61.70
2022-12-09T18:21:15.615Z,61.80
2022-12-09T18:23:45.425Z,61.80
2022-12-09T18:26:15.059Z,61.80
2022-12-09T18:28:42.913Z,61.80
2022-12-09T18:31:11.744Z,61.80
2022-12-09T18:33:39.861Z,61.80
2022-12-09T18:36:08.421Z,61.80
2022-12-09T18:38:36.323Z,61.80
2022-12-09T18:41:05.660Z,61.90
2022-12-09T18:43:35.224Z,61.80
2022-12-09T18:46:03.800Z,61.80
2022-12-09T18:48:31.698Z,61.80
2022-12-09T18:50:59.724Z,61.80
2022-12-09T18:53:27.720Z,61.80
2022-12-09T18:55:55.601Z,61.80
2022-12-09T18:58:42.812Z,61.70
2022-12-09T19:01:16.038Z,61.70
2022-12-09T19:03:44.185Z,61.70
2022-12-09T19:06:20.205Z,61.50
2022-12-09T19:08:48.400Z,61.70
2022-12-09T19:11:16.518Z,61.50
2022-12-09T19:13:45.792Z,61.30
2022-12-09T19:16:13.717Z,61.10
2022-12-09T19:18:41.703Z,61.00
2022-12-09T19:21:10.599Z,60.80
2022-12-09T19:23:38.751Z,60.80
2022-12-09T19:26:11.989Z,60.80
2022-12-09T19:28:40.056Z,60.80
2022-12-09T19:31:16.881Z,60.80
2022-12-09T19:33:44.866Z,60.80
2022-12-09T19:36:13.367Z,60.80
2022-12-09T19:38:41.366Z,60.80
2022-12-09T19:41:09.305Z,60.80
2022-12-09T19:43:37.314Z,60.80
2022-12-09T19:46:06.791Z,60.80
2022-12-09T19:48:37.224Z,60.80
2022-12-09T19:51:05.615Z,60.80
2022-12-09T19:53:33.792Z,61.80
2022-12-09T19:56:02.757Z,61.70
2022-12-09T19:58:31.189Z,60.80
2022-12-09T20:00:59.295Z,60.80
2022-12-09T20:03:27.197Z,60.70
2022-12-09T20:05:56.773Z,60.70
2022-12-09T20:08:25.102Z,60.70
2022-12-09T20:10:53.095Z,60.50
2022-12-09T20:13:21.132Z,60.50
2022-12-09T20:15:49.092Z,60.50
2022-12-09T20:18:17.153Z,60.50
2022-12-09T20:20:48.912Z,60.50
2022-12-09T20:23:18.604Z,60.50
2022-12-09T20:25:46.536Z,60.50
2022-12-09T20:28:14.510Z,60.40
2022-12-09T20:30:42.488Z,60.40
2022-12-09T20:33:10.362Z,60.40
2022-12-09T20:35:38.339Z,60.40
2022-12-09T20:38:06.516Z,60.40
2022-12-09T20:40:40.510Z,60.40
2022-12-09T20:43:08.715Z,60.40
2022-12-09T20:45:39.353Z,60.40
2022-12-09T20:48:07.464Z,60.40
2022-12-09T20:50:38.714Z,60.30
2022-12-09T20:53:06.936Z,60.40
2022-12-09T20:55:36.176Z,60.30
2022-12-09T20:58:04.093Z,60.30
2022-12-09T21:00:31.937Z,60.30
2022-12-09T21:02:59.783Z,60.30
2022-12-09T21:05:27.695Z,60.30
2022-12-09T21:07:55.582Z,60.40
2022-12-09T21:10:23.593Z,60.40
2022-12-09T21:12:52.861Z,60.40
2022-12-09T21:15:23.353Z,60.50
2022-12-09T21:17:51.791Z,60.50
2022-12-09T21:20:19.732Z,60.40
2022-12-09T21:23:04.414Z,60.40
2022-12-09T21:25:35.620Z,60.60
2022-12-09T21:28:05.275Z,61.00
2022-12-09T21:30:33.368Z,61.50
2022-12-09T21:33:01.231Z,61.80
2022-12-09T21:35:29.061Z,61.80
2022-12-09T21:37:56.939Z,61.80
2022-12-09T21:40:24.844Z,61.90
2022-12-09T21:42:52.704Z,61.90
2022-12-09T21:45:21.938Z,61.90
2022-12-09T21:47:49.795Z,61.80
2022-12-09T21:50:17.825Z,62.00
2022-12-09T21:52:45.717Z,61.90
2022-12-09T21:55:13.597Z,61.90
2022-12-09T21:57:41.465Z,61.80
2022-12-09T22:00:11.178Z,61.70
2022-12-09T22:02:41.345Z,61.70
2022-12-09T22:05:09.744Z,61.60
2022-12-09T22:07:37.595Z,61.50
2022-12-09T22:10:06.565Z,61.60
2022-12-09T22:12:34.788Z,61.70
2022-12-09T22:15:02.889Z,61.90
2022-12-09T22:17:30.777Z,62.00
2022-12-09T22:20:44.135Z,62.20
2022-12-09T22:22:48.865Z,62.30
2022-12-09T22:25:16.819Z,62.50
2022-12-09T22:27:44.737Z,62.60
2022-12-09T22:30:13.538Z,62.70
2022-12-09T22:32:44.377Z,62.90
2022-12-09T22:35:15.797Z,63.00
2022-12-09T22:37:44.342Z,63.10
2022-12-09T22:40:13.156Z,63.20
2022-12-09T22:42:41.025Z,63.20
2022-12-09T22:45:09.376Z,63.40
2022-12-09T22:47:37.318Z,63.40
2022-12-09T22:50:05.945Z,63.50
2022-12-09T22:52:35.459Z,63.60
2022-12-09T22:55:03.335Z,63.70
2022-12-09T22:57:31.619Z,63.80
2022-12-09T22:59:59.522Z,63.70
2022-12-09T23:02:27.739Z,63.90
2022-12-09T23:04:55.694Z,63.90
2022-12-09T23:07:23.513Z,63.90
2022-12-09T23:09:52.770Z,64.10
2022-12-09T23:12:20.680Z,64.10
2022-12-09T23:14:48.574Z,64.10
2022-12-09T23:17:16.498Z,64.20
2022-12-09T23:19:44.348Z,64.30
2022-12-09T23:22:12.328Z,64.40
2022-12-09T23:24:40.363Z,64.40
2022-12-09T23:27:09.645Z,64.50
2022-12-09T23:29:37.527Z,64.50
2022-12-09T23:32:05.726Z,64.50
2022-12-09T23:34:33.564Z,64.50
2022-12-09T23:37:01.442Z,64.50
2022-12-09T23:39:29.282Z,64.60
2022-12-09T23:41:57.138Z,64.70
2022-12-09T23:44:26.360Z,64.80
2022-12-09T23:46:54.242Z,64.90
2022-12-09T23:49:22.101Z,65.00
2022-12-09T23:51:49.961Z,64.90
2022-12-09T23:54:18.642Z,65.00
2022-12-09T23:56:49.653Z,65.00
2022-12-09T23:59:18.413Z,65.00
